Time;durP1;ratioP1;P1;durP2;ratioP2;P2;SDS_P1;SDS_P2;PMS_P1;PMS_P2;Temp;Humidity;BMP_temperature;BMP_pressure;BME280_temperature;BME280_humidity;BME280_pressure;Samples;Min_cycle;Max_cycle;Signal;HPM_P1;HPM_P2
2022/12/25 00:01:15;;;;;;;28.65;10.88;;;8.00;99.90;;;;;;5031831;28;20100;-68
2022/12/25 00:03:41;;;;;;;35.67;10.65;;;8.00;99.90;;;;;;5029824;28;20061;-68
2022/12/25 00:06:07;;;;;;;29.83;10.75;;;8.00;99.90;;;;;;5012948;28;20057;-68
2022/12/25 00:08:34;;;;;;;25.10;11.55;;;8.00;99.90;;;;;;5013657;28;20040;-68
2022/12/25 00:11:09;;;;;;;28.77;9.65;;;8.00;99.90;;;;;;5011720;28;20036;-69
2022/12/25 00:13:36;;;;;;;37.13;12.40;;;8.20;99.90;;;;;;5018723;28;20030;-69
2022/12/25 00:16:10;;;;;;;24.55;10.30;;;8.20;99.90;;;;;;5031669;28;20044;-69
2022/12/25 00:18:35;;;;;;;30.15;10.73;;;8.30;99.90;;;;;;5031781;28;20026;-69
2022/12/25 00:21:05;;;;;;;27.98;10.07;;;8.40;99.90;;;;;;5032762;28;20032;-69
2022/12/25 00:23:31;;;;;;;30.75;10.65;;;8.30;99.90;;;;;;5031678;28;20120;-69
2022/12/25 00:25:57;;;;;;;26.83;10.40;;;8.10;99.90;;;;;;5032349;28;20148;-69
2022/12/25 00:28:23;;;;;;;23.92;9.60;;;8.10;99.90;;;;;;5032060;28;20029;-69
2022/12/25 00:30:49;;;;;;;25.75;10.43;;;8.10;99.90;;;;;;5031420;28;20025;-69
2022/12/25 00:33:15;;;;;;;23.63;9.75;;;8.10;99.90;;;;;;5031851;28;20067;-69
2022/12/25 00:35:41;;;;;;;28.58;9.40;;;8.20;99.90;;;;;;5031771;28;20030;-69
2022/12/25 00:38:06;;;;;;;27.52;9.25;;;8.30;99.90;;;;;;5036050;28;20036;-69
2022/12/25 00:40:32;;;;;;;27.55;10.40;;;8.40;99.90;;;;;;5035631;28;20037;-69
2022/12/25 00:42:57;;;;;;;26.90;9.85;;;8.30;99.90;;;;;;5036284;28;20104;-68
2022/12/25 00:45:23;;;;;;;30.17;11.10;;;8.40;99.90;;;;;;5035599;28;20065;-69
2022/12/25 00:47:48;;;;;;;32.60;10.75;;;8.50;99.90;;;;;;5035609;28;20027;-69
2022/12/25 00:50:14;;;;;;;31.67;10.35;;;8.50;99.90;;;;;;5035116;28;20018;-69
2022/12/25 00:52:39;;;;;;;34.03;11.25;;;8.50;99.90;;;;;;5036714;28;20021;-69
2022/12/25 00:55:05;;;;;;;25.77;10.20;;;8.60;99.90;;;;;;5035089;28;20090;-69
2022/12/25 00:57:32;;;;;;;34.35;11.35;;;8.60;99.90;;;;;;5036294;28;20022;-68
2022/12/25 00:59:58;;;;;;;37.13;11.40;;;8.50;99.90;;;;;;5035609;28;20048;-69
2022/12/25 01:02:23;;;;;;;22.92;9.98;;;8.50;99.90;;;;;;5035028;28;20029;-69
2022/12/25 01:04:55;;;;;;;29.52;10.85;;;8.50;99.90;;;;;;5036113;28;20026;-69
2022/12/25 01:07:22;;;;;;;29.58;10.27;;;8.60;99.90;;;;;;5035123;28;20037;-69
2022/12/25 01:12:36;;;;;;;25.98;10.07;;;8.60;99.90;;;;;;5037478;28;20048;-69
2022/12/25 01:15:02;;;;;;;35.97;11.00;;;8.50;99.90;;;;;;5034678;28;20022;-68
2022/12/25 01:17:28;;;;;;;27.50;10.18;;;8.50;99.90;;;;;;5035870;28;20029;-68
2022/12/25 01:19:53;;;;;;;27.17;10.98;;;8.50;99.90;;;;;;5034556;28;20228;-68
2022/12/25 01:22:19;;;;;;;22.65;9.43;;;8.40;99.90;;;;;;5034570;28;20044;-68
2022/12/25 01:24:44;;;;;;;24.50;10.23;;;8.40;99.90;;;;;;5034548;28;20097;-69
2022/12/25 01:27:10;;;;;;;23.27;8.98;;;8.30;99.90;;;;;;5034858;28;20060;-68
2022/12/25 01:29:36;;;;;;;23.33;9.75;;;8.30;99.90;;;;;;5034944;28;20030;-69
2022/12/25 01:32:02;;;;;;;30.80;10.13;;;8.30;99.90;;;;;;5035820;28;20025;-69
2022/12/25 01:34:28;;;;;;;27.45;10.50;;;8.30;99.90;;;;;;5034900;28;20033;-69
2022/12/25 01:36:53;;;;;;;33.70;10.65;;;8.40;99.90;;;;;;5035610;28;20022;-68
2022/12/25 01:39:19;;;;;;;29.42;12.50;;;8.40;99.90;;;;;;5035870;28;20024;-68
2022/12/25 01:41:46;;;;;;;29.30;11.82;;;8.40;99.90;;;;;;5034230;28;20022;-69
2022/12/25 01:44:15;;;;;;;31.98;12.63;;;8.40;99.90;;;;;;5034518;28;20018;-69
2022/12/25 01:46:42;;;;;;;32.40;11.85;;;8.40;99.90;;;;;;5034499;28;20014;-69
2022/12/25 01:49:14;;;;;;;30.80;11.00;;;8.50;99.90;;;;;;5034505;28;20064;-68
2022/12/25 01:51:45;;;;;;;22.65;10.02;;;8.50;99.90;;;;;;5035591;28;20033;-69
2022/12/25 01:54:30;;;;;;;22.02;9.65;;;8.50;99.90;;;;;;5035633;28;20013;-68
2022/12/25 01:56:59;;;;;;;22.52;9.85;;;8.40;99.90;;;;;;5035113;28;20026;-68
2022/12/25 01:59:26;;;;;;;19.02;9.23;;;8.40;99.90;;;;;;5034227;28;20017;-69
2022/12/25 02:01:52;;;;;;;24.38;9.30;;;8.50;99.90;;;;;;5034140;28;20500;-69
2022/12/25 02:04:39;;;;;;;22.20;8.73;;;8.50;99.90;;;;;;5033873;28;20112;-69
2022/12/25 02:07:22;;;;;;;25.05;10.20;;;8.60;99.90;;;;;;5034397;28;20028;-69
2022/12/25 02:09:48;;;;;;;28.90;11.07;;;8.60;99.90;;;;;;5035281;28;20060;-69
2022/12/25 02:12:24;;;;;;;25.98;11.05;;;8.50;99.90;;;;;;5039518;22;20038;-68
2022/12/25 02:14:52;;;;;;;29.42;9.68;;;8.50;99.90;;;;;;5014251;28;20473;-68
2022/12/25 02:17:37;;;;;;;24.98;10.73;;;8.60;99.90;;;;;;5015414;28;20030;-68
2022/12/25 02:20:15;;;;;;;30.52;10.05;;;8.70;99.90;;;;;;5014629;28;20034;-69
2022/12/25 02:23:21;;;;;;;27.02;9.75;;;8.70;99.90;;;;;;4995621;28;20022;-69
2022/12/25 02:26:25;;;;;;;26.42;11.55;;;8.70;99.90;;;;;;4994336;28;20076;-69
2022/12/25 02:29:18;;;;;;;21.98;10.07;;;8.50;99.90;;;;;;4994169;28;20027;-68
2022/12/25 02:31:48;;;;;;;26.73;9.55;;;8.50;99.90;;;;;;4994370;28;20022;-68
2022/12/25 02:34:20;;;;;;;31.17;9.65;;;8.40;99.90;;;;;;4994164;28;20457;-68
2022/12/25 02:36:56;;;;;;;;;;;8.40;99.90;;;;;;4994375;28;20030;-68
2022/12/25 03:06:41;;;;;;;32.00;10.15;;;8.60;99.90;;;;;;4995312;28;20025;-68
2022/12/25 03:07:26;;;;;;;26.23;9.95;;;9.10;99.90;;;;;;4995129;28;20033;-69
2022/12/25 03:13:03;;;;;;;30.45;9.85;;;9.10;99.90;;;;;;4995058;28;20045;-69
2022/12/25 03:18:17;;;;;;;29.77;10.65;;;8.80;99.90;;;;;;4994878;28;20088;-69
2022/12/25 03:29:07;;;;;;;29.80;10.98;;;9.20;99.90;;;;;;4994247;28;20056;-69
2022/12/25 03:31:35;;;;;;;25.65;9.50;;;9.20;99.90;;;;;;4993158;28;20030;-68
2022/12/25 04:36:42;;;;;;;50.05;14.80;;;9.90;99.90;;;;;;4993766;28;20077;-68
2022/12/25 04:39:08;;;;;;;33.30;13.23;;;10.10;99.90;;;;;;4993972;28;20050;-68
2022/12/25 04:41:34;;;;;;;42.17;15.45;;;10.10;99.90;;;;;;4993333;28;20054;-68
2022/12/25 04:43:59;;;;;;;38.20;14.82;;;10.20;99.90;;;;;;4992702;28;20053;-68
2022/12/25 04:46:25;;;;;;;40.63;15.10;;;10.10;99.90;;;;;;4992385;28;20038;-68
2022/12/25 04:48:50;;;;;;;37.85;13.38;;;10.00;99.90;;;;;;4992066;28;20438;-68
2022/12/25 04:51:20;;;;;;;41.03;15.55;;;10.10;99.90;;;;;;4991906;28;20030;-68
2022/12/25 04:53:47;;;;;;;39.80;14.18;;;10.10;99.90;;;;;;4992023;28;20062;-68
2022/12/25 04:56:13;;;;;;;43.65;16.75;;;10.10;99.90;;;;;;4992291;28;20038;-68
2022/12/25 04:58:40;;;;;;;40.55;15.25;;;10.10;99.90;;;;;;4991972;28;20026;-68
2022/12/25 05:01:06;;;;;;;36.70;14.25;;;10.10;99.90;;;;;;4993304;28;20022;-68
2022/12/25 05:03:31;;;;;;;38.97;14.02;;;10.10;99.90;;;;;;4993228;28;20022;-68
2022/12/25 05:05:57;;;;;;;44.88;16.58;;;10.20;99.90;;;;;;4992042;28;20033;-68
2022/12/25 05:08:23;;;;;;;41.88;15.98;;;10.10;99.90;;;;;;4992725;28;20018;-68
2022/12/25 05:10:49;;;;;;;48.90;14.88;;;10.10;99.90;;;;;;4991630;28;20410;-68
2022/12/25 05:13:15;;;;;;;40.95;14.98;;;10.10;99.90;;;;;;4993398;28;20022;-68
2022/12/25 05:15:41;;;;;;;44.53;15.73;;;10.10;99.90;;;;;;4992915;28;20019;-68
2022/12/25 05:18:07;;;;;;;42.85;15.68;;;10.10;99.90;;;;;;4992198;28;20028;-68
2022/12/25 05:20:33;;;;;;;50.58;15.27;;;10.10;99.90;;;;;;4991665;28;20030;-68
2022/12/25 05:22:58;;;;;;;41.28;15.30;;;10.00;99.90;;;;;;4992166;28;20032;-68
2022/12/25 05:25:24;;;;;;;39.47;16.02;;;10.00;99.90;;;;;;4996410;28;20049;-68
2022/12/25 05:27:49;;;;;;;35.95;14.38;;;10.00;99.90;;;;;;4996749;28;20030;-68
2022/12/25 05:30:15;;;;;;;41.42;14.57;;;10.00;99.90;;;;;;4994994;28;20022;-68
2022/12/25 05:32:40;;;;;;;44.67;16.13;;;10.10;99.90;;;;;;4996575;28;20027;-68
2022/12/25 05:35:07;;;;;;;36.85;14.82;;;10.10;99.90;;;;;;4996631;28;20026;-68
2022/12/25 05:37:34;;;;;;;45.65;15.43;;;10.10;99.90;;;;;;4994943;28;20030;-68
2022/12/25 05:39:59;;;;;;;43.20;15.65;;;10.10;99.90;;;;;;4995308;28;20030;-68
2022/12/25 05:42:25;;;;;;;51.22;14.38;;;10.20;99.90;;;;;;4996637;28;20041;-68
2022/12/25 05:44:50;;;;;;;46.40;15.25;;;10.20;99.90;;;;;;4994809;28;20026;-68
2022/12/25 05:47:16;;;;;;;54.65;14.60;;;10.10;99.90;;;;;;4995158;28;20049;-68
2022/12/25 05:49:42;;;;;;;36.70;15.45;;;10.10;99.90;;;;;;4995931;28;20040;-68
2022/12/25 05:52:07;;;;;;;42.35;15.15;;;10.00;99.90;;;;;;4995706;28;20026;-68
2022/12/25 05:54:34;;;;;;;44.88;15.15;;;10.00;99.90;;;;;;4996290;28;20370;-68
2022/12/25 05:57:00;;;;;;;38.17;14.77;;;10.00;99.90;;;;;;4995003;28;20556;-68
2022/12/25 05:59:28;;;;;;;43.75;14.25;;;10.00;99.90;;;;;;4995800;28;20065;-68
2022/12/25 06:01:54;;;;;;;49.40;14.00;;;10.00;99.90;;;;;;4995398;28;20037;-68
2022/12/25 06:04:19;;;;;;;37.00;13.32;;;10.10;99.90;;;;;;4995299;28;20026;-68
2022/12/25 06:06:45;;;;;;;43.55;14.50;;;10.00;99.90;;;;;;4995310;28;20484;-68
2022/12/25 06:09:12;;;;;;;49.47;15.50;;;9.90;99.90;;;;;;4995621;28;20030;-68
2022/12/25 06:11:38;;;;;;;43.95;12.95;;;9.80;99.90;;;;;;4995830;28;20026;-68
2022/12/25 06:14:03;;;;;;;41.35;14.60;;;9.80;99.90;;;;;;4995080;28;20087;-68
2022/12/25 06:16:29;;;;;;;44.30;13.32;;;9.70;99.90;;;;;;4995676;28;20093;-68
2022/12/25 06:18:54;;;;;;;44.95;13.25;;;9.70;99.90;;;;;;4995506;28;20033;-68
2022/12/25 06:21:20;;;;;;;43.75;12.82;;;9.80;99.90;;;;;;4994376;28;20057;-68
2022/12/25 06:23:45;;;;;;;33.45;11.43;;;9.80;99.90;;;;;;4995651;28;20034;-68
2022/12/25 06:26:14;;;;;;;31.95;10.77;;;9.70;99.90;;;;;;4994455;28;20037;-68
2022/12/25 06:28:40;;;;;;;31.13;12.77;;;9.80;99.90;;;;;;4994367;28;20034;-68
2022/12/25 06:31:08;;;;;;;31.80;10.27;;;9.70;99.90;;;;;;4995104;28;20482;-68
2022/12/25 06:33:34;;;;;;;22.25;9.75;;;9.60;99.90;;;;;;4995217;28;20038;-68
2022/12/25 06:36:04;;;;;;;29.90;10.43;;;9.60;99.90;;;;;;4995069;28;20096;-68
2022/12/25 06:38:30;;;;;;;31.48;10.35;;;9.50;99.90;;;;;;4994431;28;20377;-68
2022/12/25 06:41:01;;;;;;;34.10;9.63;;;9.50;99.90;;;;;;4994202;28;20125;-68
2022/12/25 06:43:26;;;;;;;24.17;10.90;;;9.60;99.90;;;;;;4993876;28;20031;-69
2022/12/25 06:45:52;;;;;;;31.02;10.73;;;9.50;99.90;;;;;;4996010;28;20543;-68
2022/12/25 06:48:17;;;;;;;26.73;9.98;;;9.50;99.90;;;;;;4993684;28;20030;-69
2022/12/25 06:50:43;;;;;;;28.58;10.07;;;9.60;99.90;;;;;;4994085;28;20058;-69
2022/12/25 06:53:08;;;;;;;30.27;11.13;;;9.60;99.90;;;;;;4994009;28;20558;-68
2022/12/25 06:55:34;;;;;;;26.00;10.30;;;9.60;99.90;;;;;;4993630;28;20027;-68
2022/12/25 06:57:59;;;;;;;30.90;12.13;;;9.60;99.90;;;;;;4993815;28;20030;-68
2022/12/25 07:00:25;;;;;;;36.00;11.73;;;9.60;99.90;;;;;;4994697;28;20041;-68
2022/12/25 07:02:51;;;;;;;28.75;11.32;;;9.70;99.90;;;;;;4994838;28;20034;-68
2022/12/25 07:05:16;;;;;;;31.65;10.88;;;9.70;99.90;;;;;;4994917;28;20022;-68
2022/12/25 07:07:42;;;;;;;28.92;10.48;;;9.70;99.90;;;;;;4993645;28;20211;-69
2022/12/25 07:10:08;;;;;;;33.28;11.63;;;9.70;99.90;;;;;;4993232;28;20180;-68
2022/12/25 07:12:33;;;;;;;38.65;12.73;;;9.70;99.90;;;;;;4994002;28;20112;-68
2022/12/25 07:14:59;;;;;;;34.13;11.40;;;9.70;99.90;;;;;;4993841;28;20014;-68
2022/12/25 07:17:24;;;;;;;37.35;11.80;;;9.70;99.90;;;;;;4993426;28;20029;-69
2022/12/25 07:19:50;;;;;;;28.48;10.52;;;9.60;99.90;;;;;;4993692;28;20018;-69
2022/12/25 07:22:16;;;;;;;29.25;10.20;;;9.50;99.90;;;;;;4992991;28;20501;-69
2022/12/25 07:24:41;;;;;;;33.60;10.82;;;9.50;99.90;;;;;;4993371;28;20050;-69
2022/12/25 07:27:07;;;;;;;30.88;11.07;;;9.50;99.90;;;;;;4992930;28;20058;-69
2022/12/25 07:29:33;;;;;;;32.90;9.75;;;9.50;99.90;;;;;;4994667;28;20031;-69
2022/12/25 07:31:58;;;;;;;30.00;9.50;;;9.50;99.90;;;;;;4993152;28;20102;-69
2022/12/25 07:34:24;;;;;;;26.55;8.43;;;9.50;99.90;;;;;;4994152;28;20093;-69
2022/12/25 07:36:50;;;;;;;26.90;8.60;;;9.50;99.90;;;;;;4992854;28;20117;-69
2022/12/25 07:39:15;;;;;;;26.67;7.90;;;9.50;99.90;;;;;;4993675;28;20092;-69
2022/12/25 07:41:42;;;;;;;34.55;9.82;;;9.50;99.90;;;;;;4993191;28;20536;-69
2022/12/25 07:44:07;;;;;;;28.80;7.50;;;9.40;99.90;;;;;;4993922;28;20433;-69
2022/12/25 07:46:33;;;;;;;17.92;7.00;;;9.40;99.90;;;;;;4992208;28;20028;-69
2022/12/25 07:48:59;;;;;;;14.98;7.72;;;9.40;99.90;;;;;;4993673;28;20022;-69
2022/12/25 07:51:25;;;;;;;15.88;6.07;;;9.40;99.90;;;;;;4993303;28;20073;-69
2022/12/25 07:53:51;;;;;;;15.75;5.30;;;9.40;99.90;;;;;;4992590;28;20058;-69
2022/12/25 07:56:18;;;;;;;14.07;5.30;;;9.50;99.90;;;;;;4986380;28;20047;-69
2022/12/25 07:58:45;;;;;;;17.55;4.80;;;9.40;99.90;;;;;;4973903;28;20073;-69
2022/12/25 08:01:16;;;;;;;11.70;4.40;;;9.40;99.90;;;;;;4974372;28;20076;-69
2022/12/25 08:03:42;;;;;;;15.38;4.50;;;9.40;99.90;;;;;;4990240;28;20053;-68
2022/12/25 08:06:09;;;;;;;10.38;4.07;;;9.50;99.90;;;;;;4973663;28;20129;-68
2022/12/25 08:08:37;;;;;;;12.30;3.88;;;9.70;99.90;;;;;;4973067;28;20026;-68
2022/12/25 08:11:02;;;;;;;8.52;3.40;;;9.80;99.90;;;;;;4973464;28;20035;-68
2022/12/25 08:13:32;;;;;;;11.80;4.25;;;9.90;99.90;;;;;;4973165;28;20042;-68
2022/12/25 08:16:00;;;;;;;13.63;4.28;;;10.00;99.90;;;;;;4973040;28;20081;-68
2022/12/25 08:18:27;;;;;;;19.90;4.03;;;9.90;99.90;;;;;;4972990;28;20110;-68
2022/12/25 08:20:53;;;;;;;16.73;4.13;;;9.70;99.90;;;;;;4973233;28;20054;-67
2022/12/25 08:23:19;;;;;;;10.63;4.03;;;9.60;99.90;;;;;;4972881;28;20121;-67
2022/12/25 08:25:44;;;;;;;9.60;4.22;;;9.60;99.90;;;;;;4972924;28;20030;-67
2022/12/25 08:28:10;;;;;;;21.52;4.88;;;9.60;99.90;;;;;;4973897;28;20035;-67
2022/12/25 08:30:38;;;;;;;13.23;4.75;;;9.60;99.90;;;;;;4972728;28;20030;-67
2022/12/25 08:33:03;;;;;;;11.98;4.10;;;9.60;99.90;;;;;;4973138;28;20031;-68
2022/12/25 08:35:31;;;;;;;10.00;3.85;;;9.70;99.90;;;;;;4972891;28;20027;-68
2022/12/25 08:37:57;;;;;;;6.72;4.15;;;9.80;99.90;;;;;;4972853;28;20023;-68
2022/12/25 08:40:22;;;;;;;11.98;4.22;;;9.90;99.90;;;;;;4973545;28;20177;-68
2022/12/25 08:42:48;;;;;;;14.82;4.40;;;9.90;99.90;;;;;;4989338;28;20030;-68
2022/12/25 08:45:13;;;;;;;9.98;4.30;;;9.80;99.90;;;;;;4973994;28;20027;-68
2022/12/25 08:47:39;;;;;;;12.57;4.90;;;9.60;99.90;;;;;;4988893;28;20030;-68
2022/12/25 08:50:05;;;;;;;13.93;4.75;;;9.60;99.90;;;;;;4973720;28;20026;-68
2022/12/25 08:52:31;;;;;;;13.45;4.85;;;9.50;99.90;;;;;;4978812;28;20114;-68
2022/12/25 08:54:56;;;;;;;14.30;4.22;;;9.40;99.90;;;;;;4972955;28;20100;-68
2022/12/25 08:57:22;;;;;;;11.52;4.97;;;9.50;99.90;;;;;;4973382;28;20134;-68
2022/12/25 08:59:47;;;;;;;8.60;4.40;;;9.50;99.90;;;;;;4976332;28;20027;-68
2022/12/25 09:02:18;;;;;;;14.13;5.70;;;9.50;99.90;;;;;;4976138;28;20034;-68
2022/12/25 09:04:45;;;;;;;9.32;4.38;;;9.60;99.90;;;;;;4976241;28;20018;-68
2022/12/25 09:07:11;;;;;;;12.98;4.65;;;9.60;99.90;;;;;;4977016;28;20022;-68
2022/12/25 09:09:36;;;;;;;10.32;4.00;;;9.70;99.90;;;;;;4976534;28;20073;-68
2022/12/25 09:12:02;;;;;;;14.68;4.68;;;9.80;99.90;;;;;;4992595;28;20031;-68
2022/12/25 09:14:27;;;;;;;11.80;3.38;;;9.80;99.90;;;;;;4975987;28;20057;-68
2022/12/25 09:16:53;;;;;;;10.68;4.05;;;9.80;99.90;;;;;;4977532;28;20062;-68
2022/12/25 09:19:20;;;;;;;10.05;3.30;;;10.00;99.90;;;;;;4975975;28;20050;-68
2022/12/25 09:21:58;;;;;;;16.35;3.42;;;10.10;99.90;;;;;;4975714;28;20054;-68
2022/12/25 09:24:24;;;;;;;13.50;4.07;;;10.30;99.90;;;;;;4976467;28;20034;-68
2022/12/25 09:26:50;;;;;;;8.60;4.32;;;10.30;99.90;;;;;;4982994;28;20053;-68
2022/12/25 09:29:16;;;;;;;10.07;3.55;;;10.30;99.90;;;;;;4976561;28;20371;-68
2022/12/25 09:31:42;;;;;;;9.73;3.08;;;10.20;99.90;;;;;;4977114;28;20111;-68
2022/12/25 09:34:08;;;;;;;9.05;2.90;;;10.10;99.90;;;;;;4977240;28;20083;-68
2022/12/25 09:36:34;;;;;;;8.82;2.90;;;10.20;99.90;;;;;;4975638;28;20146;-68
2022/12/25 09:39:00;;;;;;;10.15;3.17;;;10.30;99.90;;;;;;4976566;28;20062;-68
2022/12/25 09:41:36;;;;;;;12.88;3.55;;;10.20;99.90;;;;;;4975675;28;20019;-68
2022/12/25 09:44:04;;;;;;;7.97;3.25;;;10.30;99.90;;;;;;4975548;28;20027;-68
2022/12/25 09:46:42;;;;;;;8.27;3.33;;;10.10;99.90;;;;;;4975543;28;20030;-68
2022/12/25 09:49:20;;;;;;;11.45;3.22;;;10.10;99.90;;;;;;4976313;28;20044;-68
2022/12/25 09:51:52;;;;;;;11.55;3.55;;;10.10;99.90;;;;;;4975152;28;20113;-69
2022/12/25 09:54:23;;;;;;;10.43;3.05;;;10.20;99.90;;;;;;4975248;28;20029;-69
2022/12/25 09:56:49;;;;;;;17.90;4.18;;;10.10;99.90;;;;;;4974935;28;20022;-69
2022/12/25 09:59:23;;;;;;;10.60;3.65;;;10.10;99.90;;;;;;4975290;28;20034;-69
2022/12/25 10:01:57;;;;;;;8.88;3.13;;;10.10;99.90;;;;;;4976763;28;20033;-69
2022/12/25 10:04:29;;;;;;;12.80;3.70;;;10.20;99.90;;;;;;4975300;28;20031;-69
2022/12/25 10:07:09;;;;;;;12.25;3.90;;;10.20;99.90;;;;;;4976278;28;20034;-67
2022/12/25 10:10:09;;;;;;;7.20;4.20;;;10.00;99.90;;;;;;4975501;28;20035;-68
2022/12/25 10:13:25;;;;;;;12.20;4.13;;;9.90;99.90;;;;;;4975276;28;20501;-68
2022/12/25 10:16:08;;;;;;;10.88;3.50;;;10.00;99.90;;;;;;4975537;28;20190;-68
2022/12/25 10:19:09;;;;;;;11.55;4.68;;;9.80;99.90;;;;;;4975323;28;20027;-68
2022/12/25 10:21:35;;;;;;;16.35;3.88;;;9.90;99.90;;;;;;4976040;28;20096;-68
2022/12/25 10:24:16;;;;;;;9.30;3.83;;;9.90;99.90;;;;;;4975121;28;20030;-68
2022/12/25 10:26:43;;;;;;;6.97;3.28;;;9.90;99.90;;;;;;4975387;28;20118;-68
2022/12/25 10:29:15;;;;;;;13.38;3.75;;;9.90;99.90;;;;;;4991778;28;20035;-68
2022/12/25 10:31:52;;;;;;;7.75;3.97;;;9.90;99.90;;;;;;4990740;28;20023;-68
2022/12/25 10:34:18;;;;;;;5.68;3.53;;;10.10;99.90;;;;;;4976160;28;20046;-68
2022/12/25 10:36:45;;;;;;;18.90;4.65;;;10.10;99.90;;;;;;4974652;28;20051;-68
2022/12/25 10:39:25;;;;;;;9.77;3.30;;;10.20;99.90;;;;;;4973777;28;20021;-69
2022/12/25 10:42:25;;;;;;;8.63;4.00;;;10.20;99.90;;;;;;4975635;28;20023;-69
2022/12/25 10:45:02;;;;;;;10.02;4.30;;;10.20;99.90;;;;;;4993880;28;20026;-69
2022/12/25 10:47:38;;;;;;;6.95;3.30;;;10.10;99.90;;;;;;4993761;28;20034;-69
2022/12/25 10:50:17;;;;;;;10.55;3.53;;;10.10;99.90;;;;;;4994947;28;20030;-69
2022/12/25 10:53:04;;;;;;;8.52;3.28;;;10.00;99.90;;;;;;4993677;28;20109;-69
2022/12/25 10:56:04;;;;;;;8.07;3.38;;;10.00;99.90;;;;;;4978124;28;20084;-70
2022/12/25 10:58:31;;;;;;;7.40;3.30;;;9.90;99.90;;;;;;4973797;28;20027;-69
2022/12/25 11:01:04;;;;;;;7.28;3.20;;;9.90;99.90;;;;;;4975329;28;20039;-69
2022/12/25 11:03:35;;;;;;;7.45;3.38;;;10.10;99.90;;;;;;4986154;28;20049;-70
2022/12/25 11:06:01;;;;;;;6.78;2.88;;;10.20;99.90;;;;;;4966585;28;20541;-70
2022/12/25 11:08:30;;;;;;;9.38;3.13;;;10.30;99.90;;;;;;4961708;28;20062;-69
2022/12/25 11:10:58;;;;;;;7.95;2.50;;;10.40;99.90;;;;;;4973479;28;20109;-69
2022/12/25 11:13:28;;;;;;;4.75;2.90;;;10.60;99.90;;;;;;4975125;28;20113;-70
2022/12/25 11:16:24;;;;;;;10.18;3.13;;;10.60;99.90;;;;;;4989966;28;20031;-70
2022/12/25 11:18:52;;;;;;;8.30;3.50;;;10.60;99.90;;;;;;4989772;28;20023;-69
2022/12/25 11:21:21;;;;;;;10.80;3.28;;;10.60;99.90;;;;;;4972932;28;20051;-69
2022/12/25 11:23:54;;;;;;;6.85;3.40;;;10.50;99.90;;;;;;4989777;28;20113;-69
2022/12/25 11:26:19;;;;;;;8.38;3.60;;;10.40;99.90;;;;;;4989582;28;20023;-70
2022/12/25 11:28:47;;;;;;;8.23;3.40;;;10.30;99.90;;;;;;4993041;28;20505;-69
2022/12/25 11:31:37;;;;;;;4.50;2.72;;;10.40;99.90;;;;;;4992795;28;20022;-69
2022/12/25 11:34:32;;;;;;;11.38;2.92;;;10.40;99.90;;;;;;4994342;28;20030;-69
2022/12/25 11:36:59;;;;;;;7.28;2.83;;;10.50;99.90;;;;;;4993739;28;20029;-70
2022/12/25 11:39:31;;;;;;;4.35;2.60;;;10.50;99.90;;;;;;4992695;28;20053;-70
2022/12/25 11:42:33;;;;;;;9.52;3.70;;;10.40;99.90;;;;;;4976989;28;20441;-69
2022/12/25 11:45:05;;;;;;;5.47;3.05;;;10.40;99.90;;;;;;4974844;28;20031;-70
2022/12/25 11:47:36;;;;;;;7.32;4.90;;;10.40;99.90;;;;;;4973579;28;20038;-69
2022/12/25 11:50:13;;;;;;;4.93;3.28;;;10.40;99.90;;;;;;4973200;28;20480;-69
2022/12/25 11:52:43;;;;;;;14.02;3.75;;;10.40;99.90;;;;;;4973255;28;20081;-69
2022/12/25 11:55:20;;;;;;;10.20;3.70;;;10.40;99.90;;;;;;4974349;28;20046;-69
2022/12/25 11:57:53;;;;;;;9.43;3.78;;;10.40;99.90;;;;;;4989398;28;20025;-69
2022/12/25 12:00:19;;;;;;;8.43;3.80;;;10.50;99.90;;;;;;4974669;28;20085;-69
2022/12/25 12:03:00;;;;;;;8.88;3.65;;;10.50;99.90;;;;;;4974576;28;20026;-69
2022/12/25 12:05:34;;;;;;;11.25;3.90;;;10.40;99.90;;;;;;4973944;28;20033;-69
2022/12/25 12:08:03;;;;;;;8.90;4.10;;;10.40;99.90;;;;;;4973215;28;20026;-69
2022/12/25 12:10:36;;;;;;;4.95;3.25;;;10.50;99.90;;;;;;4974026;28;20085;-69
2022/12/25 12:13:26;;;;;;;11.15;4.22;;;10.40;99.90;;;;;;4954796;29;20510;-69
2022/12/25 12:16:17;;;;;;;7.93;4.15;;;10.30;99.90;;;;;;4984736;28;20405;-69
2022/12/25 12:18:44;;;;;;;11.50;4.25;;;10.20;99.90;;;;;;4978225;28;20034;-69
2022/12/25 12:21:28;;;;;;;9.32;3.90;;;10.10;99.90;;;;;;4970610;28;20026;-69
2022/12/25 12:24:36;;;;;;;10.23;3.88;;;9.90;99.90;;;;;;4970823;28;20065;-69
2022/12/25 12:27:23;;;;;;;8.52;4.70;;;9.90;99.90;;;;;;4969528;28;20031;-69
2022/12/25 12:29:56;;;;;;;6.80;3.13;;;9.90;99.90;;;;;;4979007;28;20034;-69
2022/12/25 12:32:43;;;;;;;5.13;3.20;;;10.00;99.90;;;;;;4977699;28;20023;-69
2022/12/25 12:35:17;;;;;;;9.80;3.90;;;10.10;99.90;;;;;;5010412;28;20110;-69
2022/12/25 12:37:47;;;;;;;9.38;3.65;;;10.40;99.90;;;;;;4976630;28;20509;-70
2022/12/25 12:40:24;;;;;;;7.32;3.30;;;10.50;99.90;;;;;;4976505;28;20034;-69
2022/12/25 12:42:51;;;;;;;5.95;3.40;;;10.60;99.90;;;;;;4978049;28;20026;-69
2022/12/25 12:45:23;;;;;;;9.43;3.53;;;10.70;99.90;;;;;;4977776;28;20122;-69
2022/12/25 12:47:49;;;;;;;;;;;10.60;99.90;;;;;;4973087;28;20118;-69
2022/12/25 12:50:35;;;;;;;9.25;3.83;;;10.50;99.90;;;;;;4976085;28;19929;-69
2022/12/25 12:53:23;;;;;;;12.38;3.65;;;10.40;99.90;;;;;;4977041;28;20019;-69
2022/12/25 12:55:50;;;;;;;7.20;3.70;;;10.40;99.90;;;;;;4977945;28;20027;-69
2022/12/25 12:58:29;;;;;;;9.10;3.35;;;10.60;99.90;;;;;;4977352;28;20061;-69
2022/12/25 13:01:03;;;;;;;7.53;3.22;;;10.70;99.90;;;;;;4976343;28;20550;-69
2022/12/25 13:03:56;;;;;;;10.13;3.80;;;10.80;99.90;;;;;;4976595;28;20031;-69
2022/12/25 13:06:32;;;;;;;11.15;3.45;;;10.90;99.90;;;;;;4976453;28;20045;-69
2022/12/25 13:09:18;;;;;;;10.70;3.42;;;10.90;99.90;;;;;;4977016;28;20462;-69
2022/12/25 13:11:44;;;;;;;7.35;3.30;;;10.90;99.90;;;;;;4976120;28;20126;-69
2022/12/25 13:14:16;;;;;;;5.60;2.45;;;10.90;99.90;;;;;;4975986;28;20117;-70
2022/12/25 13:16:45;;;;;;;6.97;3.20;;;11.00;99.90;;;;;;4976230;28;20059;-70
2022/12/25 13:19:17;;;;;;;9.90;3.92;;;10.90;99.90;;;;;;4976009;28;20035;-70
2022/12/25 13:22:00;;;;;;;5.85;2.97;;;10.90;99.90;;;;;;4977195;28;20034;-70
2022/12/25 13:24:34;;;;;;;10.05;3.42;;;11.00;99.90;;;;;;4975744;28;20026;-70
2022/12/25 13:27:01;;;;;;;5.68;3.28;;;11.00;99.90;;;;;;4976000;28;20030;-70
2022/12/25 13:29:32;;;;;;;5.00;3.40;;;10.90;99.90;;;;;;4977034;28;20031;-70
2022/12/25 13:31:59;;;;;;;7.07;3.38;;;10.90;99.90;;;;;;4976811;28;20098;-70
2022/12/25 13:34:33;;;;;;;4.30;2.78;;;10.80;99.90;;;;;;4976899;28;20086;-70
2022/12/25 13:37:05;;;;;;;5.80;2.92;;;10.90;99.90;;;;;;4976234;28;20023;-70
2022/12/25 13:39:32;;;;;;;6.82;2.97;;;11.00;99.90;;;;;;4975631;28;20034;-69
2022/12/25 13:42:04;;;;;;;6.40;2.58;;;11.00;99.90;;;;;;4975679;28;20034;-69
2022/12/25 13:44:38;;;;;;;6.75;3.20;;;11.00;99.90;;;;;;4976556;28;20054;-69
2022/12/25 13:47:29;;;;;;;6.82;2.80;;;10.90;99.90;;;;;;4991669;28;20039;-70
2022/12/25 13:49:56;;;;;;;7.65;3.10;;;11.00;99.90;;;;;;4975458;28;20031;-70
2022/12/25 13:52:34;;;;;;;9.95;3.22;;;10.80;99.90;;;;;;4975245;28;20422;-69
2022/12/25 13:55:10;;;;;;;9.02;3.00;;;10.60;99.90;;;;;;4976124;28;20023;-69
2022/12/25 13:57:48;;;;;;;6.72;2.85;;;10.70;99.90;;;;;;4976842;28;20026;-69
2022/12/25 14:00:27;;;;;;;7.90;3.10;;;10.80;99.90;;;;;;4975185;28;20126;-69
2022/12/25 14:02:53;;;;;;;4.30;2.63;;;10.90;99.90;;;;;;4976986;28;20052;-69
2022/12/25 14:05:31;;;;;;;4.85;2.60;;;10.80;99.90;;;;;;4975168;28;20031;-69
2022/12/25 14:07:59;;;;;;;6.35;3.08;;;10.80;99.90;;;;;;4976583;28;20030;-69
2022/12/25 14:10:29;;;;;;;5.47;3.10;;;10.80;99.90;;;;;;4975400;28;20034;-69
2022/12/25 14:12:58;;;;;;;6.15;3.00;;;10.90;99.90;;;;;;4976745;28;20033;-68
2022/12/25 14:15:27;;;;;;;4.88;3.42;;;10.90;99.90;;;;;;4976420;28;20109;-68
2022/12/25 14:17:52;;;;;;;7.30;3.42;;;10.90;99.90;;;;;;4974913;28;20029;-68
2022/12/25 14:20:27;;;;;;;8.45;4.18;;;11.00;99.90;;;;;;4975565;28;20117;-68
2022/12/25 14:22:56;;;;;;;6.65;3.10;;;10.90;99.90;;;;;;4976272;28;20038;-68
2022/12/25 14:25:39;;;;;;;4.95;3.03;;;10.90;99.90;;;;;;4975271;28;20031;-69
2022/12/25 14:28:08;;;;;;;5.80;4.43;;;10.90;99.90;;;;;;4975656;28;20061;-70
2022/12/25 14:30:34;;;;;;;9.32;4.65;;;10.90;99.90;;;;;;4975768;28;20038;-70
2022/12/25 14:33:01;;;;;;;5.28;3.33;;;10.90;99.90;;;;;;4975922;28;20019;-69
2022/12/25 14:35:27;;;;;;;8.45;3.40;;;10.80;99.90;;;;;;4974842;28;20038;-69
2022/12/25 14:37:58;;;;;;;5.97;4.07;;;10.90;99.90;;;;;;4991062;28;20026;-69
2022/12/25 14:40:30;;;;;;;5.88;3.60;;;10.90;99.90;;;;;;4975935;28;20085;-69
2022/12/25 14:42:58;;;;;;;6.82;3.30;;;10.90;99.90;;;;;;4974416;28;20034;-69
2022/12/25 14:45:30;;;;;;;5.68;3.63;;;10.80;99.90;;;;;;4974444;28;20117;-70